Aviation Digital Data Service (ADDS)

Output produced by METARs form (1206 UTC 24 March 2017)
found at http://www.aviationweather.gov/adds/metars/
 
FTTC 241100Z 36012KT CAVOK 38/M01 Q1011
FTTD 241100Z 04010KT CAVOK 38/04 Q1011
FTTJ 241100Z 06008KT 360V110 3500 DU NSC 41/05 Q1010 NOSIG
TAF FTTJ 241100Z 2412/2518 06010KT 3000 HZ NSC 
     TEMPO 2416/2420 1500
       
FTTA 241100Z 16008KT CAVOK 35/20 Q1011